Terminal Aerodrome Forecast
Issued by NWS

Home | Current Version | Previous Version | Text Only | Print | Product List | Glossary On
Versions: 1 2 3 4 5 6 7 8 9 10 11 12 13 14 15 16 17 18 19 20
000
FTUS44 KTSA 041700
TAFMLC
TAF
KMLC 041720Z 0418/0518 01014G21KT 4SM -RAPL OVC008
     FM050000 36017G23KT 3SM -SN OVC012
      TEMPO 0500/0503 1SM -SN OVC007
     FM050400 01014G21KT 4SM -SN OVC025
     FM050800 01008KT P6SM OVC050=

USA.gov is the U.S. government's official web portal to all federal, state and local government web resources and services.